KMWM/MWM METAR and TAF weather

Enter ICAO airport designator
Station Type Date Time Source
KMWM METAR 2018/12/19 10:16 UTC NOAA

KMWM 191016Z AUTO 19007KT 10SM CLR 02/01 A2961 RMK AO2


Station Type Date Time Source
KMWM Decoded METAR 2018/12/19 10:16 UTC NOAA

Windom, Windom Municipal Airport, MN, United States (KMWM) 43-54-48N 095-06-34W
Dec 19, 2018 - 05:16 AM EST / 2018.12.19 1016 UTC
Wind: from the S (190 degrees) at 8 MPH (7 KT):0
Visibility: 10 mile(s):0
Sky conditions: clear
Temperature: 35 F (2 C)
Windchill: 28 F (-2 C):1
Dew Point: 33 F (1 C)
Relative Humidity: 93%
Pressure (altimeter): 29.61 in. Hg (1002 hPa)
ob: KMWM 191016Z AUTO 19007KT 10SM CLR 02/01 A2961 RMK AO2
cycle: 10

Station Type Date Time Source
KMWM TAF UTC NOAA

Error!


Example: see airport list